sensor_id;sensor_type;location;lat;lon;timestamp;temperature;humidity
10384;DHT22;5238;43.508;4.980;2023-04-01T00:01:12;13.40;91.30
10384;DHT22;5238;43.508;4.980;2023-04-01T00:03:44;13.40;91.30
10384;DHT22;5238;43.508;4.980;2023-04-01T00:06:13;13.30;91.30
10384;DHT22;5238;43.508;4.980;2023-04-01T00:08:42;13.30;91.30
10384;DHT22;5238;43.508;4.980;2023-04-01T00:11:11;13.30;91.30
10384;DHT22;5238;43.508;4.980;2023-04-01T00:13:38;13.20;91.30
10384;DHT22;5238;43.508;4.980;2023-04-01T00:16:05;13.20;91.30
10384;DHT22;5238;43.508;4.980;2023-04-01T00:18:32;13.20;91.30
10384;DHT22;5238;43.508;4.980;2023-04-01T00:21:03;13.20;91.30
10384;DHT22;5238;43.508;4.980;2023-04-01T00:23:30;13.10;91.30
10384;DHT22;5238;43.508;4.980;2023-04-01T00:25:59;13.10;91.30
10384;DHT22;5238;43.508;4.980;2023-04-01T00:28:27;13.10;91.30
10384;DHT22;5238;43.508;4.980;2023-04-01T00:30:58;13.10;91.30
10384;DHT22;5238;43.508;4.980;2023-04-01T00:33:28;13.10;91.30
10384;DHT22;5238;43.508;4.980;2023-04-01T00:35:56;13.00;91.30
10384;DHT22;5238;43.508;4.980;2023-04-01T00:38:28;13.00;91.30
10384;DHT22;5238;43.508;4.980;2023-04-01T00:40:58;13.00;91.30
10384;DHT22;5238;43.508;4.980;2023-04-01T00:43:25;13.00;91.30
10384;DHT22;5238;43.508;4.980;2023-04-01T00:45:52;13.00;91.30
10384;DHT22;5238;43.508;4.980;2023-04-01T00:48:23;13.00;91.30
10384;DHT22;5238;43.508;4.980;2023-04-01T00:50:55;13.00;91.30
10384;DHT22;5238;43.508;4.980;2023-04-01T00:53:30;13.00;91.30
10384;DHT22;5238;43.508;4.980;2023-04-01T00:56:04;13.00;91.30
10384;DHT22;5238;43.508;4.980;2023-04-01T00:58:37;13.00;91.30
10384;DHT22;5238;43.508;4.980;2023-04-01T01:01:11;13.00;91.30
10384;DHT22;5238;43.508;4.980;2023-04-01T01:03:38;13.00;91.30
10384;DHT22;5238;43.508;4.980;2023-04-01T01:06:10;13.00;91.30
10384;DHT22;5238;43.508;4.980;2023-04-01T01:08:58;13.00;91.30
10384;DHT22;5238;43.508;4.980;2023-04-01T01:11:36;13.00;91.30
10384;DHT22;5238;43.508;4.980;2023-04-01T01:14:17;13.00;91.30
10384;DHT22;5238;43.508;4.980;2023-04-01T01:16:54;13.00;91.30
10384;DHT22;5238;43.508;4.980;2023-04-01T01:19:53;13.00;91.30
10384;DHT22;5238;43.508;4.980;2023-04-01T01:22:52;13.00;91.30
10384;DHT22;5238;43.508;4.980;2023-04-01T01:25:32;13.00;91.30
10384;DHT22;5238;43.508;4.980;2023-04-01T01:28:21;13.00;91.30
10384;DHT22;5238;43.508;4.980;2023-04-01T01:31:02;13.00;91.30
10384;DHT22;5238;43.508;4.980;2023-04-01T01:33:59;13.00;91.30
10384;DHT22;5238;43.508;4.980;2023-04-01T01:36:33;13.00;91.30
10384;DHT22;5238;43.508;4.980;2023-04-01T01:39:04;13.00;91.30
10384;DHT22;5238;43.508;4.980;2023-04-01T01:41:33;13.00;91.30
10384;DHT22;5238;43.508;4.980;2023-04-01T01:44:04;13.00;91.30
10384;DHT22;5238;43.508;4.980;2023-04-01T01:46:32;13.00;91.30
10384;DHT22;5238;43.508;4.980;2023-04-01T01:49:00;13.00;91.30
10384;DHT22;5238;43.508;4.980;2023-04-01T01:51:28;13.00;91.30
10384;DHT22;5238;43.508;4.980;2023-04-01T01:53:58;13.00;91.30
10384;DHT22;5238;43.508;4.980;2023-04-01T01:56:28;13.00;91.30
10384;DHT22;5238;43.508;4.980;2023-04-01T01:59:03;13.00;91.30
10384;DHT22;5238;43.508;4.980;2023-04-01T02:01:37;13.00;91.30
10384;DHT22;5238;43.508;4.980;2023-04-01T02:04:06;13.00;91.30
10384;DHT22;5238;43.508;4.980;2023-04-01T02:06:41;13.00;91.30
10384;DHT22;5238;43.508;4.980;2023-04-01T02:09:14;12.90;91.30
10384;DHT22;5238;43.508;4.980;2023-04-01T02:15:06;13.00;91.30
10384;DHT22;5238;43.508;4.980;2023-04-01T02:17:38;12.90;91.30
10384;DHT22;5238;43.508;4.980;2023-04-01T02:20:11;12.90;91.30
10384;DHT22;5238;43.508;4.980;2023-04-01T02:22:42;12.90;91.30
10384;DHT22;5238;43.508;4.980;2023-04-01T02:25:14;12.90;91.30
10384;DHT22;5238;43.508;4.980;2023-04-01T02:27:46;12.90;91.30
10384;DHT22;5238;43.508;4.980;2023-04-01T02:30:15;12.80;91.30
10384;DHT22;5238;43.508;4.980;2023-04-01T02:32:43;12.80;91.30
10384;DHT22;5238;43.508;4.980;2023-04-01T02:35:14;12.80;91.30
10384;DHT22;5238;43.508;4.980;2023-04-01T02:37:42;12.80;91.30
10384;DHT22;5238;43.508;4.980;2023-04-01T02:40:16;12.80;91.30
10384;DHT22;5238;43.508;4.980;2023-04-01T02:42:45;12.80;91.30
10384;DHT22;5238;43.508;4.980;2023-04-01T02:45:13;12.80;91.30
10384;DHT22;5238;43.508;4.980;2023-04-01T02:47:41;12.80;91.30
10384;DHT22;5238;43.508;4.980;2023-04-01T02:50:08;12.80;91.30
10384;DHT22;5238;43.508;4.980;2023-04-01T02:52:36;12.80;91.30
10384;DHT22;5238;43.508;4.980;2023-04-01T02:55:06;12.80;91.30
10384;DHT22;5238;43.508;4.980;2023-04-01T02:57:35;12.80;91.30
10384;DHT22;5238;43.508;4.980;2023-04-01T03:00:02;12.80;91.30
10384;DHT22;5238;43.508;4.980;2023-04-01T03:02:37;12.80;91.30
10384;DHT22;5238;43.508;4.980;2023-04-01T03:05:13;12.80;91.30
10384;DHT22;5238;43.508;4.980;2023-04-01T03:07:41;12.80;91.30
10384;DHT22;5238;43.508;4.980;2023-04-01T03:10:09;12.80;91.30
10384;DHT22;5238;43.508;4.980;2023-04-01T03:12:37;12.80;91.30
10384;DHT22;5238;43.508;4.980;2023-04-01T03:15:05;12.80;91.30
10384;DHT22;5238;43.508;4.980;2023-04-01T03:17:35;12.80;91.30
10384;DHT22;5238;43.508;4.980;2023-04-01T03:20:06;12.80;91.30
10384;DHT22;5238;43.508;4.980;2023-04-01T03:22:34;12.80;91.30
10384;DHT22;5238;43.508;4.980;2023-04-01T03:25:01;12.80;91.30
10384;DHT22;5238;43.508;4.980;2023-04-01T03:27:31;12.80;91.30
10384;DHT22;5238;43.508;4.980;2023-04-01T03:30:01;12.80;91.30
10384;DHT22;5238;43.508;4.980;2023-04-01T03:32:30;12.90;91.30
10384;DHT22;5238;43.508;4.980;2023-04-01T03:34:57;12.90;91.30
10384;DHT22;5238;43.508;4.980;2023-04-01T03:37:24;12.90;91.30
10384;DHT22;5238;43.508;4.980;2023-04-01T03:39:56;12.90;91.30
10384;DHT22;5238;43.508;4.980;2023-04-01T03:42:23;12.90;91.30
10384;DHT22;5238;43.508;4.980;2023-04-01T03:44:51;13.00;91.30
10384;DHT22;5238;43.508;4.980;2023-04-01T03:47:21;13.00;91.30
10384;DHT22;5238;43.508;4.980;2023-04-01T03:49:50;13.00;91.30
10384;DHT22;5238;43.508;4.980;2023-04-01T03:52:19;13.00;91.30
10384;DHT22;5238;43.508;4.980;2023-04-01T03:54:46;13.10;91.30
10384;DHT22;5238;43.508;4.980;2023-04-01T03:57:15;13.10;91.30
10384;DHT22;5238;43.508;4.980;2023-04-01T03:59:43;13.10;91.30
10384;DHT22;5238;43.508;4.980;2023-04-01T04:02:12;13.20;91.30
10384;DHT22;5238;43.508;4.980;2023-04-01T04:04:41;13.20;91.30
10384;DHT22;5238;43.508;4.980;2023-04-01T04:07:08;13.20;91.30
10384;DHT22;5238;43.508;4.980;2023-04-01T04:09:38;13.20;91.30
10384;DHT22;5238;43.508;4.980;2023-04-01T04:12:06;13.30;91.30
10384;DHT22;5238;43.508;4.980;2023-04-01T04:14:33;13.30;91.30
10384;DHT22;5238;43.508;4.980;2023-04-01T04:17:02;13.30;91.30
10384;DHT22;5238;43.508;4.980;2023-04-01T04:19:32;13.30;91.30
10384;DHT22;5238;43.508;4.980;2023-04-01T04:22:02;13.30;91.30
10384;DHT22;5238;43.508;4.980;2023-04-01T04:24:30;13.30;91.30
10384;DHT22;5238;43.508;4.980;2023-04-01T04:27:00;13.30;91.30
10384;DHT22;5238;43.508;4.980;2023-04-01T04:29:26;13.30;91.30
10384;DHT22;5238;43.508;4.980;2023-04-01T04:31:55;13.30;91.30
10384;DHT22;5238;43.508;4.980;2023-04-01T04:34:22;13.20;91.30
10384;DHT22;5238;43.508;4.980;2023-04-01T04:36:49;13.20;91.30
10384;DHT22;5238;43.508;4.980;2023-04-01T04:39:21;13.20;91.30
10384;DHT22;5238;43.508;4.980;2023-04-01T04:41:47;13.20;91.30
10384;DHT22;5238;43.508;4.980;2023-04-01T04:44:16;13.20;91.30
10384;DHT22;5238;43.508;4.980;2023-04-01T04:46:43;13.20;91.30
10384;DHT22;5238;43.508;4.980;2023-04-01T04:49:12;13.10;91.30
10384;DHT22;5238;43.508;4.980;2023-04-01T04:51:39;13.10;91.30
10384;DHT22;5238;43.508;4.980;2023-04-01T04:54:09;13.10;91.30
10384;DHT22;5238;43.508;4.980;2023-04-01T04:56:39;13.00;91.30
10384;DHT22;5238;43.508;4.980;2023-04-01T04:59:07;13.00;91.30
10384;DHT22;5238;43.508;4.980;2023-04-01T05:01:34;13.00;91.30
10384;DHT22;5238;43.508;4.980;2023-04-01T05:04:03;13.00;91.30
10384;DHT22;5238;43.508;4.980;2023-04-01T05:06:31;13.00;91.30
10384;DHT22;5238;43.508;4.980;2023-04-01T05:09:00;13.00;91.30
10384;DHT22;5238;43.508;4.980;2023-04-01T05:11:27;13.00;91.30
10384;DHT22;5238;43.508;4.980;2023-04-01T05:13:57;12.90;91.30
10384;DHT22;5238;43.508;4.980;2023-04-01T05:16:28;12.90;91.30
10384;DHT22;5238;43.508;4.980;2023-04-01T05:18:59;12.90;91.30
10384;DHT22;5238;43.508;4.980;2023-04-01T05:21:30;12.80;91.30
10384;DHT22;5238;43.508;4.980;2023-04-01T05:23:57;12.80;91.30
10384;DHT22;5238;43.508;4.980;2023-04-01T05:26:24;12.80;91.30
10384;DHT22;5238;43.508;4.980;2023-04-01T05:28:51;12.80;91.30
10384;DHT22;5238;43.508;4.980;2023-04-01T05:31:22;12.80;91.30
10384;DHT22;5238;43.508;4.980;2023-04-01T05:33:51;12.80;91.30
10384;DHT22;5238;43.508;4.980;2023-04-01T05:36:19;12.80;91.30
10384;DHT22;5238;43.508;4.980;2023-04-01T05:38:46;12.80;91.30
10384;DHT22;5238;43.508;4.980;2023-04-01T05:41:14;12.80;91.30
10384;DHT22;5238;43.508;4.980;2023-04-01T05:43:42;12.80;91.30
10384;DHT22;5238;43.508;4.980;2023-04-01T05:46:11;12.90;91.30
10384;DHT22;5238;43.508;4.980;2023-04-01T05:48:39;12.90;91.30
10384;DHT22;5238;43.508;4.980;2023-04-01T05:51:12;13.00;91.30
10384;DHT22;5238;43.508;4.980;2023-04-01T05:53:40;13.00;91.30
10384;DHT22;5238;43.508;4.980;2023-04-01T05:56:08;13.10;91.30
10384;DHT22;5238;43.508;4.980;2023-04-01T05:58:36;13.20;91.30
10384;DHT22;5238;43.508;4.980;2023-04-01T06:01:05;13.20;91.30
10384;DHT22;5238;43.508;4.980;2023-04-01T06:03:32;13.30;91.30
10384;DHT22;5238;43.508;4.980;2023-04-01T06:06:00;13.40;91.30
10384;DHT22;5238;43.508;4.980;2023-04-01T06:08:31;13.50;91.30
10384;DHT22;5238;43.508;4.980;2023-04-01T06:11:24;13.60;91.30
10384;DHT22;5238;43.508;4.980;2023-04-01T06:14:11;13.70;91.30
10384;DHT22;5238;43.508;4.980;2023-04-01T06:16:52;13.80;91.30
10384;DHT22;5238;43.508;4.980;2023-04-01T06:19:32;13.90;91.30
10384;DHT22;5238;43.508;4.980;2023-04-01T06:22:29;14.10;91.30
10384;DHT22;5238;43.508;4.980;2023-04-01T06:25:35;14.20;91.30
10384;DHT22;5238;43.508;4.980;2023-04-01T06:31:16;14.30;91.30
10384;DHT22;5238;43.508;4.980;2023-04-01T06:33:56;14.40;91.30
10384;DHT22;5238;43.508;4.980;2023-04-01T08:21:49;16.40;91.30
10384;DHT22;5238;43.508;4.980;2023-04-01T08:24:23;17.00;91.30
10384;DHT22;5238;43.508;4.980;2023-04-01T08:27:02;17.50;91.30
10384;DHT22;5238;43.508;4.980;2023-04-01T08:29:52;17.80;91.30
10384;DHT22;5238;43.508;4.980;2023-04-01T08:32:50;18.10;91.30
10384;DHT22;5238;43.508;4.980;2023-04-01T08:35:37;18.40;91.30
10384;DHT22;5238;43.508;4.980;2023-04-01T08:51:23;19.70;91.30
10384;DHT22;5238;43.508;4.980;2023-04-01T09:00:32;20.40;91.30
10384;DHT22;5238;43.508;4.980;2023-04-01T09:23:09;21.00;91.30
10384;DHT22;5238;43.508;4.980;2023-04-01T09:25:57;21.00;91.30
10384;DHT22;5238;43.508;4.980;2023-04-01T09:28:29;21.00;91.30
10384;DHT22;5238;43.508;4.980;2023-04-01T10:19:03;20.20;91.30
10384;DHT22;5238;43.508;4.980;2023-04-01T10:22:15;20.40;91.30
10384;DHT22;5238;43.508;4.980;2023-04-01T10:25:38;20.40;91.30
10384;DHT22;5238;43.508;4.980;2023-04-01T10:28:30;20.50;91.30
10384;DHT22;5238;43.508;4.980;2023-04-01T10:37:21;20.50;91.30
10384;DHT22;5238;43.508;4.980;2023-04-01T10:40:35;20.60;91.30
10384;DHT22;5238;43.508;4.980;2023-04-01T11:17:12;20.50;91.30
10384;DHT22;5238;43.508;4.980;2023-04-01T11:20:02;20.60;91.30
10384;DHT22;5238;43.508;4.980;2023-04-01T11:22:57;20.70;91.30
10384;DHT22;5238;43.508;4.980;2023-04-01T11:25:42;20.70;91.30
10384;DHT22;5238;43.508;4.980;2023-04-01T11:28:50;20.80;91.30
10384;DHT22;5238;43.508;4.980;2023-04-01T11:31:43;20.90;91.30
10384;DHT22;5238;43.508;4.980;2023-04-01T11:34:37;21.00;91.30
10384;DHT22;5238;43.508;4.980;2023-04-01T11:37:38;21.00;91.30
10384;DHT22;5238;43.508;4.980;2023-04-01T11:40:19;21.10;91.30
10384;DHT22;5238;43.508;4.980;2023-04-01T11:42:53;21.10;91.30
10384;DHT22;5238;43.508;4.980;2023-04-01T11:45:33;20.90;91.30
10384;DHT22;5238;43.508;4.980;2023-04-01T11:48:29;20.80;91.30
10384;DHT22;5238;43.508;4.980;2023-04-01T11:54:37;20.70;91.30
10384;DHT22;5238;43.508;4.980;2023-04-01T12:00:22;20.80;91.30
10384;DHT22;5238;43.508;4.980;2023-04-01T12:06:20;20.80;91.30
10384;DHT22;5238;43.508;4.980;2023-04-01T12:08:57;20.70;91.30
10384;DHT22;5238;43.508;4.980;2023-04-01T12:11:38;20.60;91.30
10384;DHT22;5238;43.508;4.980;2023-04-01T12:14:13;20.60;91.30
10384;DHT22;5238;43.508;4.980;2023-04-01T12:16:55;20.60;91.30
10384;DHT22;5238;43.508;4.980;2023-04-01T12:19:32;20.60;91.30
10384;DHT22;5238;43.508;4.980;2023-04-01T12:22:17;20.60;91.30
10384;DHT22;5238;43.508;4.980;2023-04-01T12:24:54;20.60;91.30
10384;DHT22;5238;43.508;4.980;2023-04-01T12:27:43;20.50;91.30
10384;DHT22;5238;43.508;4.980;2023-04-01T12:33:31;20.40;91.30
10384;DHT22;5238;43.508;4.980;2023-04-01T12:36:18;20.40;91.30
10384;DHT22;5238;43.508;4.980;2023-04-01T12:38:56;20.40;91.30
10384;DHT22;5238;43.508;4.980;2023-04-01T12:41:30;20.40;91.30
10384;DHT22;5238;43.508;4.980;2023-04-01T13:04:27;20.80;91.30
10384;DHT22;5238;43.508;4.980;2023-04-01T13:07:43;20.80;91.30
10384;DHT22;5238;43.508;4.980;2023-04-01T13:23:58;21.20;91.30
10384;DHT22;5238;43.508;4.980;2023-04-01T13:26:57;21.20;91.30
10384;DHT22;5238;43.508;4.980;2023-04-01T13:29:57;21.10;91.30
10384;DHT22;5238;43.508;4.980;2023-04-01T13:42:29;21.10;91.30
10384;DHT22;5238;43.508;4.980;2023-04-01T13:45:09;21.10;91.30
10384;DHT22;5238;43.508;4.980;2023-04-01T13:47:58;21.10;91.30
10384;DHT22;5238;43.508;4.980;2023-04-01T13:53:55;21.00;91.30
10384;DHT22;5238;43.508;4.980;2023-04-01T13:56:34;20.90;91.30
10384;DHT22;5238;43.508;4.980;2023-04-01T13:59:23;20.80;91.30
10384;DHT22;5238;43.508;4.980;2023-04-01T14:02:20;20.80;91.30
10384;DHT22;5238;43.508;4.980;2023-04-01T14:05:14;20.80;91.30
10384;DHT22;5238;43.508;4.980;2023-04-01T14:07:55;20.70;91.30
10384;DHT22;5238;43.508;4.980;2023-04-01T14:10:31;20.70;91.30
10384;DHT22;5238;43.508;4.980;2023-04-01T14:13:08;20.70;91.30
10384;DHT22;5238;43.508;4.980;2023-04-01T14:16:00;20.70;91.30
10384;DHT22;5238;43.508;4.980;2023-04-01T14:18:46;20.80;91.30
10384;DHT22;5238;43.508;4.980;2023-04-01T14:21:30;20.80;91.30
10384;DHT22;5238;43.508;4.980;2023-04-01T14:24:28;20.80;91.30
10384;DHT22;5238;43.508;4.980;2023-04-01T14:33:26;20.90;91.30
10384;DHT22;5238;43.508;4.980;2023-04-01T14:46:26;20.70;91.30
10384;DHT22;5238;43.508;4.980;2023-04-01T14:49:00;20.80;91.30
10384;DHT22;5238;43.508;4.980;2023-04-01T14:51:32;20.80;91.30
10384;DHT22;5238;43.508;4.980;2023-04-01T14:54:30;20.90;91.30
10384;DHT22;5238;43.508;4.980;2023-04-01T14:57:15;20.90;91.30
10384;DHT22;5238;43.508;4.980;2023-04-01T15:00:00;21.10;91.30
10384;DHT22;5238;43.508;4.980;2023-04-01T15:06:50;21.30;91.30
10384;DHT22;5238;43.508;4.980;2023-04-01T15:09:53;21.20;91.30
10384;DHT22;5238;43.508;4.980;2023-04-01T15:12:57;21.10;91.30
10384;DHT22;5238;43.508;4.980;2023-04-01T15:47:03;19.40;91.30
10384;DHT22;5238;43.508;4.980;2023-04-01T15:54:12;19.10;91.30
10384;DHT22;5238;43.508;4.980;2023-04-01T15:57:47;19.00;91.30
10384;DHT22;5238;43.508;4.980;2023-04-01T16:01:04;18.90;91.30
10384;DHT22;5238;43.508;4.980;2023-04-01T16:04:42;18.90;91.30
10384;DHT22;5238;43.508;4.980;2023-04-01T16:15:03;18.70;91.30
10384;DHT22;5238;43.508;4.980;2023-04-01T16:21:50;18.60;91.30
10384;DHT22;5238;43.508;4.980;2023-04-01T16:56:21;17.10;91.30
10384;DHT22;5238;43.508;4.980;2023-04-01T16:59:07;17.10;91.30
10384;DHT22;5238;43.508;4.980;2023-04-01T17:02:02;17.00;91.30
10384;DHT22;5238;43.508;4.980;2023-04-01T17:04:47;17.00;91.30
10384;DHT22;5238;43.508;4.980;2023-04-01T17:07:47;16.90;91.30
10384;DHT22;5238;43.508;4.980;2023-04-01T17:10:38;16.90;91.30
10384;DHT22;5238;43.508;4.980;2023-04-01T17:13:31;16.90;91.30
10384;DHT22;5238;43.508;4.980;2023-04-01T17:20:05;16.90;91.30
10384;DHT22;5238;43.508;4.980;2023-04-01T18:17:05;16.00;91.30
10384;DHT22;5238;43.508;4.980;2023-04-01T18:19:51;15.90;91.30
10384;DHT22;5238;43.508;4.980;2023-04-01T18:22:22;15.90;91.30
10384;DHT22;5238;43.508;4.980;2023-04-01T18:24:58;15.80;91.30
10384;DHT22;5238;43.508;4.980;2023-04-01T18:27:36;15.80;91.30
10384;DHT22;5238;43.508;4.980;2023-04-01T18:30:12;15.80;91.30
10384;DHT22;5238;43.508;4.980;2023-04-01T18:32:51;15.70;91.30
10384;DHT22;5238;43.508;4.980;2023-04-01T18:35:27;15.70;91.30
10384;DHT22;5238;43.508;4.980;2023-04-01T18:38:00;15.60;91.30
10384;DHT22;5238;43.508;4.980;2023-04-01T18:40:36;15.60;91.30
10384;DHT22;5238;43.508;4.980;2023-04-01T18:43:12;15.50;91.30
10384;DHT22;5238;43.508;4.980;2023-04-01T18:45:46;15.50;91.30
10384;DHT22;5238;43.508;4.980;2023-04-01T18:48:38;15.50;91.30
10384;DHT22;5238;43.508;4.980;2023-04-01T18:51:13;15.50;91.30
10384;DHT22;5238;43.508;4.980;2023-04-01T18:53:48;15.40;91.30
10384;DHT22;5238;43.508;4.980;2023-04-01T18:56:26;15.40;91.30
10384;DHT22;5238;43.508;4.980;2023-04-01T18:59:01;15.30;91.30
10384;DHT22;5238;43.508;4.980;2023-04-01T19:01:39;15.20;91.30
10384;DHT22;5238;43.508;4.980;2023-04-01T19:04:19;15.20;91.30
10384;DHT22;5238;43.508;4.980;2023-04-01T19:06:49;15.10;91.30
10384;DHT22;5238;43.508;4.980;2023-04-01T19:09:27;15.00;91.30
10384;DHT22;5238;43.508;4.980;2023-04-01T19:12:18;14.90;91.30
10384;DHT22;5238;43.508;4.980;2023-04-01T19:17:52;14.70;91.30
10384;DHT22;5238;43.508;4.980;2023-04-01T19:20:26;14.50;91.30
10384;DHT22;5238;43.508;4.980;2023-04-01T19:23:37;14.50;91.30
10384;DHT22;5238;43.508;4.980;2023-04-01T19:26:11;14.40;91.30
10384;DHT22;5238;43.508;4.980;2023-04-01T19:28:47;14.30;91.30
10384;DHT22;5238;43.508;4.980;2023-04-01T19:31:35;14.30;91.30
10384;DHT22;5238;43.508;4.980;2023-04-01T19:34:16;14.20;91.30
10384;DHT22;5238;43.508;4.980;2023-04-01T19:36:49;14.10;91.30
10384;DHT22;5238;43.508;4.980;2023-04-01T19:39:34;14.10;91.30
10384;DHT22;5238;43.508;4.980;2023-04-01T19:42:13;14.00;91.30
10384;DHT22;5238;43.508;4.980;2023-04-01T19:44:54;14.00;91.30
10384;DHT22;5238;43.508;4.980;2023-04-01T19:47:43;14.00;91.30
10384;DHT22;5238;43.508;4.980;2023-04-01T19:50:20;13.90;91.30
10384;DHT22;5238;43.508;4.980;2023-04-01T19:52:59;13.90;91.30
10384;DHT22;5238;43.508;4.980;2023-04-01T19:55:36;13.90;91.30
10384;DHT22;5238;43.508;4.980;2023-04-01T19:58:12;13.80;91.30
10384;DHT22;5238;43.508;4.980;2023-04-01T20:00:48;13.80;91.30
10384;DHT22;5238;43.508;4.980;2023-04-01T20:03:34;13.80;91.30
10384;DHT22;5238;43.508;4.980;2023-04-01T20:06:17;13.80;91.30
10384;DHT22;5238;43.508;4.980;2023-04-01T20:08:58;13.80;91.30
10384;DHT22;5238;43.508;4.980;2023-04-01T20:11:38;13.70;91.30
10384;DHT22;5238;43.508;4.980;2023-04-01T20:14:14;13.70;91.30
10384;DHT22;5238;43.508;4.980;2023-04-01T20:17:06;13.70;91.30
10384;DHT22;5238;43.508;4.980;2023-04-01T20:19:40;13.60;91.30
10384;DHT22;5238;43.508;4.980;2023-04-01T20:22:24;13.60;91.30
10384;DHT22;5238;43.508;4.980;2023-04-01T20:24:59;13.60;91.30
10384;DHT22;5238;43.508;4.980;2023-04-01T20:27:32;13.60;91.30
10384;DHT22;5238;43.508;4.980;2023-04-01T20:30:35;13.50;91.30
10384;DHT22;5238;43.508;4.980;2023-04-01T20:33:25;13.50;91.30
10384;DHT22;5238;43.508;4.980;2023-04-01T20:36:05;13.50;91.30
10384;DHT22;5238;43.508;4.980;2023-04-01T20:39:10;13.50;91.30
10384;DHT22;5238;43.508;4.980;2023-04-01T20:41:59;13.50;91.30
10384;DHT22;5238;43.508;4.980;2023-04-01T20:44:36;13.40;91.30
10384;DHT22;5238;43.508;4.980;2023-04-01T20:47:14;13.50;91.30
10384;DHT22;5238;43.508;4.980;2023-04-01T20:49:52;13.50;91.30
10384;DHT22;5238;43.508;4.980;2023-04-01T20:52:39;13.50;91.30
10384;DHT22;5238;43.508;4.980;2023-04-01T20:55:30;13.40;91.30
10384;DHT22;5238;43.508;4.980;2023-04-01T20:58:13;13.40;91.30
10384;DHT22;5238;43.508;4.980;2023-04-01T21:00:55;13.40;91.30
10384;DHT22;5238;43.508;4.980;2023-04-01T21:03:34;13.40;91.30
10384;DHT22;5238;43.508;4.980;2023-04-01T21:06:25;13.30;91.30
10384;DHT22;5238;43.508;4.980;2023-04-01T21:09:07;13.30;91.30
10384;DHT22;5238;43.508;4.980;2023-04-01T21:11:53;13.30;91.30
10384;DHT22;5238;43.508;4.980;2023-04-01T21:17:20;13.30;91.30
10384;DHT22;5238;43.508;4.980;2023-04-01T21:20:34;13.30;91.30
10384;DHT22;5238;43.508;4.980;2023-04-01T21:23:31;13.20;91.30
10384;DHT22;5238;43.508;4.980;2023-04-01T21:26:12;13.20;91.30
10384;DHT22;5238;43.508;4.980;2023-04-01T21:29:08;13.20;91.30
10384;DHT22;5238;43.508;4.980;2023-04-01T21:34:58;13.10;91.30
10384;DHT22;5238;43.508;4.980;2023-04-01T21:37:37;13.10;91.30
10384;DHT22;5238;43.508;4.980;2023-04-01T21:43:31;13.00;91.30
10384;DHT22;5238;43.508;4.980;2023-04-01T21:49:51;12.90;91.30
10384;DHT22;5238;43.508;4.980;2023-04-01T21:52:47;12.90;91.30
10384;DHT22;5238;43.508;4.980;2023-04-01T21:56:17;12.80;91.30
10384;DHT22;5238;43.508;4.980;2023-04-01T22:04:57;12.60;91.30
10384;DHT22;5238;43.508;4.980;2023-04-01T22:07:34;12.50;91.30
10384;DHT22;5238;43.508;4.980;2023-04-01T22:10:09;12.50;91.30
10384;DHT22;5238;43.508;4.980;2023-04-01T22:12:46;12.40;91.30
10384;DHT22;5238;43.508;4.980;2023-04-01T22:15:23;12.40;91.30
10384;DHT22;5238;43.508;4.980;2023-04-01T22:18:02;12.40;91.30
10384;DHT22;5238;43.508;4.980;2023-04-01T22:20:36;12.30;91.30
10384;DHT22;5238;43.508;4.980;2023-04-01T22:23:20;12.30;91.30
10384;DHT22;5238;43.508;4.980;2023-04-01T22:25:57;12.30;91.30
10384;DHT22;5238;43.508;4.980;2023-04-01T22:28:29;12.30;91.30
10384;DHT22;5238;43.508;4.980;2023-04-01T22:31:14;12.30;91.30
10384;DHT22;5238;43.508;4.980;2023-04-01T22:33:48;12.30;91.30
10384;DHT22;5238;43.508;4.980;2023-04-01T22:36:31;12.20;91.30
10384;DHT22;5238;43.508;4.980;2023-04-01T22:39:21;12.30;91.30
10384;DHT22;5238;43.508;4.980;2023-04-01T22:41:58;12.30;91.30
10384;DHT22;5238;43.508;4.980;2023-04-01T22:44:37;12.30;91.30
10384;DHT22;5238;43.508;4.980;2023-04-01T22:47:13;12.30;91.30
10384;DHT22;5238;43.508;4.980;2023-04-01T22:49:47;12.40;91.30
10384;DHT22;5238;43.508;4.980;2023-04-01T22:52:41;12.40;91.30
10384;DHT22;5238;43.508;4.980;2023-04-01T22:55:14;12.40;91.30
10384;DHT22;5238;43.508;4.980;2023-04-01T22:57:49;12.40;91.30
10384;DHT22;5238;43.508;4.980;2023-04-01T23:00:21;12.40;91.30
10384;DHT22;5238;43.508;4.980;2023-04-01T23:03:04;12.50;91.30
10384;DHT22;5238;43.508;4.980;2023-04-01T23:05:38;12.50;91.30
10384;DHT22;5238;43.508;4.980;2023-04-01T23:11:11;12.50;91.30
10384;DHT22;5238;43.508;4.980;2023-04-01T23:13:49;12.50;91.30
10384;DHT22;5238;43.508;4.980;2023-04-01T23:16:21;12.50;91.30
10384;DHT22;5238;43.508;4.980;2023-04-01T23:18:52;12.50;91.30
10384;DHT22;5238;43.508;4.980;2023-04-01T23:21:28;12.50;91.30
10384;DHT22;5238;43.508;4.980;2023-04-01T23:24:06;12.50;91.30
10384;DHT22;5238;43.508;4.980;2023-04-01T23:26:42;12.40;91.30
10384;DHT22;5238;43.508;4.980;2023-04-01T23:29:14;12.40;91.30
10384;DHT22;5238;43.508;4.980;2023-04-01T23:31:42;12.40;91.30
10384;DHT22;5238;43.508;4.980;2023-04-01T23:34:28;12.40;91.30
10384;DHT22;5238;43.508;4.980;2023-04-01T23:36:57;12.40;91.30
10384;DHT22;5238;43.508;4.980;2023-04-01T23:39:38;12.30;91.30
10384;DHT22;5238;43.508;4.980;2023-04-01T23:42:13;12.30;91.30
10384;DHT22;5238;43.508;4.980;2023-04-01T23:44:42;12.30;91.30
10384;DHT22;5238;43.508;4.980;2023-04-01T23:47:15;12.20;91.30
10384;DHT22;5238;43.508;4.980;2023-04-01T23:49:47;12.20;91.30
10384;DHT22;5238;43.508;4.980;2023-04-01T23:52:20;12.20;91.30
10384;DHT22;5238;43.508;4.980;2023-04-01T23:54:53;12.10;91.30
10384;DHT22;5238;43.508;4.980;2023-04-01T23:57:24;12.10;91.30
